sensor_id;sensor_type;location;lat;lon;timestamp;temperature;humidity
69261;DHT22;56378;52.404;20.816;2024-01-15T00:02:06;0.10;99.90
69261;DHT22;56378;52.404;20.816;2024-01-15T00:04:36;0.00;99.90
69261;DHT22;56378;52.404;20.816;2024-01-15T00:07:02;0.00;99.90
69261;DHT22;56378;52.404;20.816;2024-01-15T00:09:28;0.00;99.90
69261;DHT22;56378;52.404;20.816;2024-01-15T00:11:54;0.00;99.90
69261;DHT22;56378;52.404;20.816;2024-01-15T00:14:19;0.00;99.90
69261;DHT22;56378;52.404;20.816;2024-01-15T00:16:46;0.00;99.90
69261;DHT22;56378;52.404;20.816;2024-01-15T00:19:12;0.00;99.90
69261;DHT22;56378;52.404;20.816;2024-01-15T00:21:38;-0.10;99.90
69261;DHT22;56378;52.404;20.816;2024-01-15T00:24:04;-0.10;99.90
69261;DHT22;56378;52.404;20.816;2024-01-15T00:26:30;-0.10;99.90
69261;DHT22;56378;52.404;20.816;2024-01-15T00:28:55;-0.10;99.90
69261;DHT22;56378;52.404;20.816;2024-01-15T00:31:21;-0.10;99.90
69261;DHT22;56378;52.404;20.816;2024-01-15T00:33:46;-0.10;99.90
69261;DHT22;56378;52.404;20.816;2024-01-15T00:36:12;-0.10;99.90
69261;DHT22;56378;52.404;20.816;2024-01-15T00:38:40;-0.10;99.90
69261;DHT22;56378;52.404;20.816;2024-01-15T00:41:05;-0.10;99.90
69261;DHT22;56378;52.404;20.816;2024-01-15T00:43:31;-0.20;99.90
69261;DHT22;56378;52.404;20.816;2024-01-15T00:45:57;-0.10;99.90
69261;DHT22;56378;52.404;20.816;2024-01-15T00:48:22;-0.20;99.90
69261;DHT22;56378;52.404;20.816;2024-01-15T00:50:48;-0.10;99.90
69261;DHT22;56378;52.404;20.816;2024-01-15T00:53:14;-0.20;99.90
69261;DHT22;56378;52.404;20.816;2024-01-15T00:55:39;-0.20;99.90
69261;DHT22;56378;52.404;20.816;2024-01-15T00:58:05;-0.20;99.90
69261;DHT22;56378;52.404;20.816;2024-01-15T01:00:30;-0.20;99.90
69261;DHT22;56378;52.404;20.816;2024-01-15T01:02:56;-0.10;99.90
69261;DHT22;56378;52.404;20.816;2024-01-15T01:05:22;-0.10;99.90
69261;DHT22;56378;52.404;20.816;2024-01-15T01:07:47;-0.10;99.90
69261;DHT22;56378;52.404;20.816;2024-01-15T01:10:13;-0.10;99.90
69261;DHT22;56378;52.404;20.816;2024-01-15T01:12:39;-0.10;99.90
69261;DHT22;56378;52.404;20.816;2024-01-15T01:15:05;-0.10;99.90
69261;DHT22;56378;52.404;20.816;2024-01-15T01:17:31;0.00;99.90
69261;DHT22;56378;52.404;20.816;2024-01-15T01:19:56;-0.10;99.90
69261;DHT22;56378;52.404;20.816;2024-01-15T01:22:22;-0.10;99.90
69261;DHT22;56378;52.404;20.816;2024-01-15T01:24:48;-0.10;99.90
69261;DHT22;56378;52.404;20.816;2024-01-15T01:27:13;-0.10;99.90
69261;DHT22;56378;52.404;20.816;2024-01-15T01:29:39;-0.10;99.90
69261;DHT22;56378;52.404;20.816;2024-01-15T01:32:05;-0.10;99.90
69261;DHT22;56378;52.404;20.816;2024-01-15T01:34:33;-0.10;99.90
69261;DHT22;56378;52.404;20.816;2024-01-15T01:37:05;-0.10;99.90
69261;DHT22;56378;52.404;20.816;2024-01-15T01:39:31;-0.10;99.90
69261;DHT22;56378;52.404;20.816;2024-01-15T01:41:56;-0.10;99.90
69261;DHT22;56378;52.404;20.816;2024-01-15T01:44:22;-0.20;99.90
69261;DHT22;56378;52.404;20.816;2024-01-15T01:46:48;-0.20;99.90
69261;DHT22;56378;52.404;20.816;2024-01-15T01:49:14;-0.10;99.90
69261;DHT22;56378;52.404;20.816;2024-01-15T01:51:40;-0.10;99.90
69261;DHT22;56378;52.404;20.816;2024-01-15T01:54:06;-0.10;99.90
69261;DHT22;56378;52.404;20.816;2024-01-15T01:56:33;-0.20;99.90
69261;DHT22;56378;52.404;20.816;2024-01-15T01:59:00;-0.20;99.90
69261;DHT22;56378;52.404;20.816;2024-01-15T02:01:26;-0.20;99.90
69261;DHT22;56378;52.404;20.816;2024-01-15T02:03:52;-0.20;99.90
69261;DHT22;56378;52.404;20.816;2024-01-15T02:06:18;-0.20;99.90
69261;DHT22;56378;52.404;20.816;2024-01-15T02:08:44;-0.20;99.90
69261;DHT22;56378;52.404;20.816;2024-01-15T02:11:10;-0.20;99.90
69261;DHT22;56378;52.404;20.816;2024-01-15T02:13:36;-0.20;99.90
69261;DHT22;56378;52.404;20.816;2024-01-15T02:16:02;-0.20;99.90
69261;DHT22;56378;52.404;20.816;2024-01-15T02:18:27;-0.20;99.90
69261;DHT22;56378;52.404;20.816;2024-01-15T02:20:53;-0.20;99.90
69261;DHT22;56378;52.404;20.816;2024-01-15T02:23:19;-0.20;99.90
69261;DHT22;56378;52.404;20.816;2024-01-15T02:25:46;-0.20;99.90
69261;DHT22;56378;52.404;20.816;2024-01-15T02:28:15;-0.30;99.90
69261;DHT22;56378;52.404;20.816;2024-01-15T02:30:42;-0.30;99.90
69261;DHT22;56378;52.404;20.816;2024-01-15T02:33:10;-0.30;99.90
69261;DHT22;56378;52.404;20.816;2024-01-15T02:35:36;-0.30;99.90
69261;DHT22;56378;52.404;20.816;2024-01-15T02:38:05;-0.20;99.90
69261;DHT22;56378;52.404;20.816;2024-01-15T02:40:31;-0.30;99.90
69261;DHT22;56378;52.404;20.816;2024-01-15T02:42:57;-0.20;99.90
69261;DHT22;56378;52.404;20.816;2024-01-15T02:45:23;-0.20;99.90
69261;DHT22;56378;52.404;20.816;2024-01-15T02:47:49;-0.20;99.90
69261;DHT22;56378;52.404;20.816;2024-01-15T02:50:15;-0.20;99.90
69261;DHT22;56378;52.404;20.816;2024-01-15T02:52:43;-0.20;99.90
69261;DHT22;56378;52.404;20.816;2024-01-15T02:55:09;-0.20;99.90
69261;DHT22;56378;52.404;20.816;2024-01-15T02:57:35;-0.30;99.90
69261;DHT22;56378;52.404;20.816;2024-01-15T03:00:01;-0.30;99.90
69261;DHT22;56378;52.404;20.816;2024-01-15T03:02:27;-0.30;99.90
69261;DHT22;56378;52.404;20.816;2024-01-15T03:04:52;-0.30;99.90
69261;DHT22;56378;52.404;20.816;2024-01-15T03:07:18;-0.30;99.90
69261;DHT22;56378;52.404;20.816;2024-01-15T03:09:44;-0.30;99.90
69261;DHT22;56378;52.404;20.816;2024-01-15T03:12:10;-0.30;99.90
69261;DHT22;56378;52.404;20.816;2024-01-15T03:14:36;-0.40;99.90
69261;DHT22;56378;52.404;20.816;2024-01-15T03:17:02;-0.40;99.90
69261;DHT22;56378;52.404;20.816;2024-01-15T03:19:28;-0.40;99.90
69261;DHT22;56378;52.404;20.816;2024-01-15T03:21:53;-0.40;99.90
69261;DHT22;56378;52.404;20.816;2024-01-15T03:24:20;-0.40;99.90
69261;DHT22;56378;52.404;20.816;2024-01-15T03:26:46;-0.40;99.90
69261;DHT22;56378;52.404;20.816;2024-01-15T03:29:11;-0.40;99.90
69261;DHT22;56378;52.404;20.816;2024-01-15T03:31:37;-0.40;99.90
69261;DHT22;56378;52.404;20.816;2024-01-15T03:34:03;-0.40;99.90
69261;DHT22;56378;52.404;20.816;2024-01-15T03:36:29;-0.40;99.90
69261;DHT22;56378;52.404;20.816;2024-01-15T03:38:54;-0.40;99.90
69261;DHT22;56378;52.404;20.816;2024-01-15T03:41:20;-0.40;99.90
69261;DHT22;56378;52.404;20.816;2024-01-15T03:43:46;-0.40;99.90
69261;DHT22;56378;52.404;20.816;2024-01-15T03:46:11;-0.40;99.90
69261;DHT22;56378;52.404;20.816;2024-01-15T03:48:38;-0.40;99.90
69261;DHT22;56378;52.404;20.816;2024-01-15T03:51:04;-0.40;99.90
69261;DHT22;56378;52.404;20.816;2024-01-15T03:53:29;-0.40;99.90
69261;DHT22;56378;52.404;20.816;2024-01-15T03:55:55;-0.40;99.90
69261;DHT22;56378;52.404;20.816;2024-01-15T03:58:21;-0.40;99.90
69261;DHT22;56378;52.404;20.816;2024-01-15T04:00:46;-0.30;99.90
69261;DHT22;56378;52.404;20.816;2024-01-15T04:03:12;-0.40;99.90
69261;DHT22;56378;52.404;20.816;2024-01-15T04:05:38;-0.40;99.90
69261;DHT22;56378;52.404;20.816;2024-01-15T04:08:04;-0.40;99.90
69261;DHT22;56378;52.404;20.816;2024-01-15T04:10:30;-0.40;99.90
69261;DHT22;56378;52.404;20.816;2024-01-15T04:12:55;-0.40;99.90
69261;DHT22;56378;52.404;20.816;2024-01-15T04:15:21;-0.40;99.90
69261;DHT22;56378;52.404;20.816;2024-01-15T04:17:47;-0.40;99.90
69261;DHT22;56378;52.404;20.816;2024-01-15T04:20:13;-0.40;99.90
69261;DHT22;56378;52.404;20.816;2024-01-15T04:22:38;-0.40;99.90
69261;DHT22;56378;52.404;20.816;2024-01-15T04:25:04;-0.40;99.90
69261;DHT22;56378;52.404;20.816;2024-01-15T04:27:30;-0.40;99.90
69261;DHT22;56378;52.404;20.816;2024-01-15T04:29:56;-0.40;99.90
69261;DHT22;56378;52.404;20.816;2024-01-15T04:32:21;-0.40;99.90
69261;DHT22;56378;52.404;20.816;2024-01-15T04:34:47;-0.30;99.90
69261;DHT22;56378;52.404;20.816;2024-01-15T04:37:16;-0.30;99.90
69261;DHT22;56378;52.404;20.816;2024-01-15T04:39:42;-0.30;99.90
69261;DHT22;56378;52.404;20.816;2024-01-15T04:42:07;-0.30;99.90
69261;DHT22;56378;52.404;20.816;2024-01-15T04:44:33;-0.30;99.90
69261;DHT22;56378;52.404;20.816;2024-01-15T04:46:59;-0.30;99.90
69261;DHT22;56378;52.404;20.816;2024-01-15T04:49:24;-0.30;99.90
69261;DHT22;56378;52.404;20.816;2024-01-15T04:51:52;-0.30;99.90
69261;DHT22;56378;52.404;20.816;2024-01-15T04:54:18;-0.30;99.90
69261;DHT22;56378;52.404;20.816;2024-01-15T04:56:44;-0.30;99.90
69261;DHT22;56378;52.404;20.816;2024-01-15T04:59:10;-0.30;99.90
69261;DHT22;56378;52.404;20.816;2024-01-15T05:01:36;-0.30;99.90
69261;DHT22;56378;52.404;20.816;2024-01-15T05:04:02;-0.30;99.90
69261;DHT22;56378;52.404;20.816;2024-01-15T05:06:28;-0.20;99.90
69261;DHT22;56378;52.404;20.816;2024-01-15T05:08:54;-0.30;99.90
69261;DHT22;56378;52.404;20.816;2024-01-15T05:11:20;-0.20;99.90
69261;DHT22;56378;52.404;20.816;2024-01-15T05:13:46;-0.20;99.90
69261;DHT22;56378;52.404;20.816;2024-01-15T05:16:11;-0.20;99.90
69261;DHT22;56378;52.404;20.816;2024-01-15T05:18:37;-0.20;99.90
69261;DHT22;56378;52.404;20.816;2024-01-15T05:21:03;-0.20;99.90
69261;DHT22;56378;52.404;20.816;2024-01-15T05:23:31;-0.30;99.90
69261;DHT22;56378;52.404;20.816;2024-01-15T05:25:57;-0.30;99.90
69261;DHT22;56378;52.404;20.816;2024-01-15T05:28:22;-0.20;99.90
69261;DHT22;56378;52.404;20.816;2024-01-15T05:30:48;-0.20;99.90
69261;DHT22;56378;52.404;20.816;2024-01-15T05:33:16;-0.20;99.90
69261;DHT22;56378;52.404;20.816;2024-01-15T05:35:42;-0.20;99.90
69261;DHT22;56378;52.404;20.816;2024-01-15T05:38:08;-0.20;99.90
69261;DHT22;56378;52.404;20.816;2024-01-15T05:40:33;-0.20;99.90
69261;DHT22;56378;52.404;20.816;2024-01-15T05:42:59;-0.20;99.90
69261;DHT22;56378;52.404;20.816;2024-01-15T05:45:26;-0.20;99.90
69261;DHT22;56378;52.404;20.816;2024-01-15T05:47:52;-0.20;99.90
69261;DHT22;56378;52.404;20.816;2024-01-15T05:50:18;-0.20;99.90
69261;DHT22;56378;52.404;20.816;2024-01-15T05:52:44;-0.10;99.90
69261;DHT22;56378;52.404;20.816;2024-01-15T05:55:09;-0.10;99.90
69261;DHT22;56378;52.404;20.816;2024-01-15T05:57:36;-0.20;99.90
69261;DHT22;56378;52.404;20.816;2024-01-15T06:00:03;-0.20;99.90
69261;DHT22;56378;52.404;20.816;2024-01-15T06:02:29;-0.20;99.90
69261;DHT22;56378;52.404;20.816;2024-01-15T06:04:54;-0.20;99.90
69261;DHT22;56378;52.404;20.816;2024-01-15T06:07:20;-0.30;99.90
69261;DHT22;56378;52.404;20.816;2024-01-15T06:09:46;-0.20;99.90
69261;DHT22;56378;52.404;20.816;2024-01-15T06:12:11;-0.20;99.90
69261;DHT22;56378;52.404;20.816;2024-01-15T06:14:37;-0.20;99.90
69261;DHT22;56378;52.404;20.816;2024-01-15T06:17:03;-0.20;99.90
69261;DHT22;56378;52.404;20.816;2024-01-15T06:19:29;-0.20;99.90
69261;DHT22;56378;52.404;20.816;2024-01-15T06:21:55;-0.20;99.90
69261;DHT22;56378;52.404;20.816;2024-01-15T06:24:20;-0.20;99.90
69261;DHT22;56378;52.404;20.816;2024-01-15T06:26:47;-0.20;99.90
69261;DHT22;56378;52.404;20.816;2024-01-15T06:29:12;-0.20;99.90
69261;DHT22;56378;52.404;20.816;2024-01-15T06:31:38;-0.20;99.90
69261;DHT22;56378;52.404;20.816;2024-01-15T06:34:04;-0.20;99.90
69261;DHT22;56378;52.404;20.816;2024-01-15T06:36:30;-0.20;99.90
69261;DHT22;56378;52.404;20.816;2024-01-15T06:38:55;-0.20;99.90
69261;DHT22;56378;52.404;20.816;2024-01-15T06:41:21;-0.20;99.90
69261;DHT22;56378;52.404;20.816;2024-01-15T06:43:48;-0.20;99.90
69261;DHT22;56378;52.404;20.816;2024-01-15T06:46:22;-0.20;99.90
69261;DHT22;56378;52.404;20.816;2024-01-15T06:48:48;-0.20;99.90
69261;DHT22;56378;52.404;20.816;2024-01-15T06:51:15;-0.20;99.90
69261;DHT22;56378;52.404;20.816;2024-01-15T06:53:41;-0.20;99.90
69261;DHT22;56378;52.404;20.816;2024-01-15T06:56:07;-0.20;99.90
69261;DHT22;56378;52.404;20.816;2024-01-15T06:58:33;-0.20;99.90
69261;DHT22;56378;52.404;20.816;2024-01-15T07:00:59;-0.30;99.90
69261;DHT22;56378;52.404;20.816;2024-01-15T07:03:25;-0.40;99.90
69261;DHT22;56378;52.404;20.816;2024-01-15T07:05:51;-0.40;99.90
69261;DHT22;56378;52.404;20.816;2024-01-15T07:08:16;-0.40;99.90
69261;DHT22;56378;52.404;20.816;2024-01-15T07:10:42;-0.40;99.90
69261;DHT22;56378;52.404;20.816;2024-01-15T07:13:09;-0.50;99.90
69261;DHT22;56378;52.404;20.816;2024-01-15T07:15:35;-0.50;99.90
69261;DHT22;56378;52.404;20.816;2024-01-15T07:18:00;-0.50;99.90
69261;DHT22;56378;52.404;20.816;2024-01-15T07:20:26;-0.50;99.90
69261;DHT22;56378;52.404;20.816;2024-01-15T07:22:52;-0.50;99.90
69261;DHT22;56378;52.404;20.816;2024-01-15T07:25:18;-0.50;99.90
69261;DHT22;56378;52.404;20.816;2024-01-15T07:27:43;-0.50;99.90
69261;DHT22;56378;52.404;20.816;2024-01-15T07:30:13;-0.50;99.90
69261;DHT22;56378;52.404;20.816;2024-01-15T07:32:39;-0.50;99.90
69261;DHT22;56378;52.404;20.816;2024-01-15T07:35:05;-0.40;99.90
69261;DHT22;56378;52.404;20.816;2024-01-15T07:37:31;-0.40;99.90
69261;DHT22;56378;52.404;20.816;2024-01-15T07:39:57;-0.50;99.90
69261;DHT22;56378;52.404;20.816;2024-01-15T07:42:22;-0.40;99.90
69261;DHT22;56378;52.404;20.816;2024-01-15T07:44:48;-0.50;99.90
69261;DHT22;56378;52.404;20.816;2024-01-15T07:47:14;-0.50;99.90
69261;DHT22;56378;52.404;20.816;2024-01-15T07:49:39;-0.40;99.90
69261;DHT22;56378;52.404;20.816;2024-01-15T07:52:05;-0.50;99.90
69261;DHT22;56378;52.404;20.816;2024-01-15T07:54:31;-0.40;99.90
69261;DHT22;56378;52.404;20.816;2024-01-15T07:57:02;-0.40;99.90
69261;DHT22;56378;52.404;20.816;2024-01-15T07:59:31;-0.40;99.90
69261;DHT22;56378;52.404;20.816;2024-01-15T08:01:59;-0.30;99.90
69261;DHT22;56378;52.404;20.816;2024-01-15T08:04:24;-0.20;99.90
69261;DHT22;56378;52.404;20.816;2024-01-15T08:06:50;-0.20;99.90
69261;DHT22;56378;52.404;20.816;2024-01-15T08:09:16;-0.10;99.90
69261;DHT22;56378;52.404;20.816;2024-01-15T08:11:42;-0.10;99.90
69261;DHT22;56378;52.404;20.816;2024-01-15T08:14:09;0.00;99.90
69261;DHT22;56378;52.404;20.816;2024-01-15T08:16:36;0.00;99.90
69261;DHT22;56378;52.404;20.816;2024-01-15T08:19:02;0.00;99.90
69261;DHT22;56378;52.404;20.816;2024-01-15T08:21:28;0.10;99.90
69261;DHT22;56378;52.404;20.816;2024-01-15T08:24:00;0.10;99.90
69261;DHT22;56378;52.404;20.816;2024-01-15T08:26:27;0.10;99.90
69261;DHT22;56378;52.404;20.816;2024-01-15T08:28:53;0.10;99.90
69261;DHT22;56378;52.404;20.816;2024-01-15T08:31:19;0.20;99.90
69261;DHT22;56378;52.404;20.816;2024-01-15T08:33:44;0.40;99.90
69261;DHT22;56378;52.404;20.816;2024-01-15T08:36:10;0.60;99.90
69261;DHT22;56378;52.404;20.816;2024-01-15T08:38:36;0.90;99.90
69261;DHT22;56378;52.404;20.816;2024-01-15T08:41:02;1.40;99.90
69261;DHT22;56378;52.404;20.816;2024-01-15T08:43:27;1.60;99.90
69261;DHT22;56378;52.404;20.816;2024-01-15T08:45:53;1.90;99.90
69261;DHT22;56378;52.404;20.816;2024-01-15T08:48:19;2.20;99.90
69261;DHT22;56378;52.404;20.816;2024-01-15T08:50:45;2.30;99.90
69261;DHT22;56378;52.404;20.816;2024-01-15T08:53:12;2.20;99.90
69261;DHT22;56378;52.404;20.816;2024-01-15T08:55:38;2.10;99.90
69261;DHT22;56378;52.404;20.816;2024-01-15T08:58:04;2.00;99.90
69261;DHT22;56378;52.404;20.816;2024-01-15T09:00:30;1.70;99.90
69261;DHT22;56378;52.404;20.816;2024-01-15T09:02:56;1.40;99.90
69261;DHT22;56378;52.404;20.816;2024-01-15T09:05:22;1.30;99.90
69261;DHT22;56378;52.404;20.816;2024-01-15T09:07:48;1.10;99.90
69261;DHT22;56378;52.404;20.816;2024-01-15T09:10:14;0.90;99.90
69261;DHT22;56378;52.404;20.816;2024-01-15T09:12:40;0.80;99.90
69261;DHT22;56378;52.404;20.816;2024-01-15T09:15:06;0.80;99.90
69261;DHT22;56378;52.404;20.816;2024-01-15T09:17:32;0.90;99.90
69261;DHT22;56378;52.404;20.816;2024-01-15T09:19:58;0.90;99.90
69261;DHT22;56378;52.404;20.816;2024-01-15T09:22:24;1.00;99.90
69261;DHT22;56378;52.404;20.816;2024-01-15T09:24:49;1.00;99.90
69261;DHT22;56378;52.404;20.816;2024-01-15T09:27:15;1.00;99.90
69261;DHT22;56378;52.404;20.816;2024-01-15T09:29:41;1.00;99.90
69261;DHT22;56378;52.404;20.816;2024-01-15T09:32:08;1.00;99.90
69261;DHT22;56378;52.404;20.816;2024-01-15T09:34:34;1.10;99.90
69261;DHT22;56378;52.404;20.816;2024-01-15T09:37:00;1.20;99.90
69261;DHT22;56378;52.404;20.816;2024-01-15T09:39:27;1.30;99.90
69261;DHT22;56378;52.404;20.816;2024-01-15T09:41:54;1.30;99.90
69261;DHT22;56378;52.404;20.816;2024-01-15T09:44:20;1.20;99.90
69261;DHT22;56378;52.404;20.816;2024-01-15T09:46:47;1.20;99.90
69261;DHT22;56378;52.404;20.816;2024-01-15T09:49:16;1.10;99.90
69261;DHT22;56378;52.404;20.816;2024-01-15T09:51:42;1.10;99.90
69261;DHT22;56378;52.404;20.816;2024-01-15T09:54:08;1.10;99.90
69261;DHT22;56378;52.404;20.816;2024-01-15T09:56:35;1.20;99.90
69261;DHT22;56378;52.404;20.816;2024-01-15T09:59:01;1.20;99.90
69261;DHT22;56378;52.404;20.816;2024-01-15T10:01:28;1.20;99.90
69261;DHT22;56378;52.404;20.816;2024-01-15T10:03:55;1.20;99.90
69261;DHT22;56378;52.404;20.816;2024-01-15T10:06:21;1.20;99.90
69261;DHT22;56378;52.404;20.816;2024-01-15T10:08:50;1.20;99.90
69261;DHT22;56378;52.404;20.816;2024-01-15T10:11:16;1.20;99.90
69261;DHT22;56378;52.404;20.816;2024-01-15T10:13:43;1.20;99.90
69261;DHT22;56378;52.404;20.816;2024-01-15T10:16:10;1.20;99.90
69261;DHT22;56378;52.404;20.816;2024-01-15T10:18:37;1.30;99.90
69261;DHT22;56378;52.404;20.816;2024-01-15T10:21:08;1.30;99.90
69261;DHT22;56378;52.404;20.816;2024-01-15T10:23:33;1.30;99.90
69261;DHT22;56378;52.404;20.816;2024-01-15T10:26:00;1.20;99.90
69261;DHT22;56378;52.404;20.816;2024-01-15T10:28:29;1.20;99.90
69261;DHT22;56378;52.404;20.816;2024-01-15T10:30:58;1.20;99.90
69261;DHT22;56378;52.404;20.816;2024-01-15T10:33:27;1.40;99.90
69261;DHT22;56378;52.404;20.816;2024-01-15T10:35:57;2.10;99.90
69261;DHT22;56378;52.404;20.816;2024-01-15T10:38:24;2.20;99.90
69261;DHT22;56378;52.404;20.816;2024-01-15T10:40:54;2.30;99.90
69261;DHT22;56378;52.404;20.816;2024-01-15T10:43:21;2.50;99.90
69261;DHT22;56378;52.404;20.816;2024-01-15T10:45:50;2.60;99.90
69261;DHT22;56378;52.404;20.816;2024-01-15T10:48:18;2.50;99.90
69261;DHT22;56378;52.404;20.816;2024-01-15T10:50:45;2.60;99.90
69261;DHT22;56378;52.404;20.816;2024-01-15T10:53:13;2.40;99.90
69261;DHT22;56378;52.404;20.816;2024-01-15T10:55:39;2.30;99.90
69261;DHT22;56378;52.404;20.816;2024-01-15T10:58:08;2.00;99.90
69261;DHT22;56378;52.404;20.816;2024-01-15T11:00:35;1.80;99.90
69261;DHT22;56378;52.404;20.816;2024-01-15T11:03:03;1.60;99.90
69261;DHT22;56378;52.404;20.816;2024-01-15T11:05:37;1.40;99.90
69261;DHT22;56378;52.404;20.816;2024-01-15T11:08:06;1.30;99.90
69261;DHT22;56378;52.404;20.816;2024-01-15T11:10:42;1.30;99.90
69261;DHT22;56378;52.404;20.816;2024-01-15T11:16:07;1.30;99.90
69261;DHT22;56378;52.404;20.816;2024-01-15T11:18:39;1.30;99.90
69261;DHT22;56378;52.404;20.816;2024-01-15T11:26:31;1.40;99.90
69261;DHT22;56378;52.404;20.816;2024-01-15T11:34:12;1.50;99.90
69261;DHT22;56378;52.404;20.816;2024-01-15T11:41:59;1.20;99.90
69261;DHT22;56378;52.404;20.816;2024-01-15T11:44:26;1.10;99.90
69261;DHT22;56378;52.404;20.816;2024-01-15T11:47:00;1.00;99.90
69261;DHT22;56378;52.404;20.816;2024-01-15T11:49:58;1.00;99.90
69261;DHT22;56378;52.404;20.816;2024-01-15T11:52:35;1.00;99.90
69261;DHT22;56378;52.404;20.816;2024-01-15T11:55:11;1.10;99.90
69261;DHT22;56378;52.404;20.816;2024-01-15T11:57:51;1.20;99.90
69261;DHT22;56378;52.404;20.816;2024-01-15T12:00:18;1.20;99.90
69261;DHT22;56378;52.404;20.816;2024-01-15T12:02:45;1.10;99.90
69261;DHT22;56378;52.404;20.816;2024-01-15T12:05:13;1.10;99.90
69261;DHT22;56378;52.404;20.816;2024-01-15T12:07:40;1.20;99.90
69261;DHT22;56378;52.404;20.816;2024-01-15T12:10:28;1.50;99.90
69261;DHT22;56378;52.404;20.816;2024-01-15T12:15:28;1.70;99.90
69261;DHT22;56378;52.404;20.816;2024-01-15T12:17:56;1.50;99.90
69261;DHT22;56378;52.404;20.816;2024-01-15T12:20:26;1.30;99.90
69261;DHT22;56378;52.404;20.816;2024-01-15T12:22:52;1.10;99.90
69261;DHT22;56378;52.404;20.816;2024-01-15T12:25:18;1.00;99.90
69261;DHT22;56378;52.404;20.816;2024-01-15T12:27:44;0.80;99.90
69261;DHT22;56378;52.404;20.816;2024-01-15T12:30:15;0.80;99.90
69261;DHT22;56378;52.404;20.816;2024-01-15T12:32:41;0.70;99.90
69261;DHT22;56378;52.404;20.816;2024-01-15T12:35:08;0.70;99.90
69261;DHT22;56378;52.404;20.816;2024-01-15T12:37:39;0.60;99.90
69261;DHT22;56378;52.404;20.816;2024-01-15T12:40:09;0.50;99.90
69261;DHT22;56378;52.404;20.816;2024-01-15T12:42:40;0.40;99.90
69261;DHT22;56378;52.404;20.816;2024-01-15T12:45:08;0.30;99.90
69261;DHT22;56378;52.404;20.816;2024-01-15T12:47:34;0.30;99.90
69261;DHT22;56378;52.404;20.816;2024-01-15T12:50:00;0.30;99.90
69261;DHT22;56378;52.404;20.816;2024-01-15T12:52:29;0.30;99.90
69261;DHT22;56378;52.404;20.816;2024-01-15T12:54:55;0.20;99.90
69261;DHT22;56378;52.404;20.816;2024-01-15T12:57:21;0.20;99.90
69261;DHT22;56378;52.404;20.816;2024-01-15T12:59:47;0.20;99.90
69261;DHT22;56378;52.404;20.816;2024-01-15T13:02:13;0.20;99.90
69261;DHT22;56378;52.404;20.816;2024-01-15T13:04:39;0.20;99.90
69261;DHT22;56378;52.404;20.816;2024-01-15T13:07:08;0.20;99.90
69261;DHT22;56378;52.404;20.816;2024-01-15T13:09:34;0.10;99.90
69261;DHT22;56378;52.404;20.816;2024-01-15T13:12:01;0.10;99.90
69261;DHT22;56378;52.404;20.816;2024-01-15T13:14:27;0.10;99.90
69261;DHT22;56378;52.404;20.816;2024-01-15T13:16:53;0.10;99.90
69261;DHT22;56378;52.404;20.816;2024-01-15T13:19:19;0.10;99.90
69261;DHT22;56378;52.404;20.816;2024-01-15T13:21:47;0.10;99.90
69261;DHT22;56378;52.404;20.816;2024-01-15T13:24:13;0.10;99.90
69261;DHT22;56378;52.404;20.816;2024-01-15T13:26:39;0.00;99.90
69261;DHT22;56378;52.404;20.816;2024-01-15T13:29:05;0.00;99.90
69261;DHT22;56378;52.404;20.816;2024-01-15T13:31:32;0.00;99.90
69261;DHT22;56378;52.404;20.816;2024-01-15T13:33:58;0.00;99.90
69261;DHT22;56378;52.404;20.816;2024-01-15T13:36:24;0.10;99.90
69261;DHT22;56378;52.404;20.816;2024-01-15T13:38:51;0.10;99.90
69261;DHT22;56378;52.404;20.816;2024-01-15T13:41:18;0.20;99.90
69261;DHT22;56378;52.404;20.816;2024-01-15T13:43:54;0.20;99.90
69261;DHT22;56378;52.404;20.816;2024-01-15T13:46:20;0.30;99.90
69261;DHT22;56378;52.404;20.816;2024-01-15T13:48:47;0.30;99.90
69261;DHT22;56378;52.404;20.816;2024-01-15T13:51:13;0.30;99.90
69261;DHT22;56378;52.404;20.816;2024-01-15T13:53:39;0.30;99.90
69261;DHT22;56378;52.404;20.816;2024-01-15T13:56:06;0.30;99.90
69261;DHT22;56378;52.404;20.816;2024-01-15T13:58:32;0.30;99.90
69261;DHT22;56378;52.404;20.816;2024-01-15T14:01:01;0.30;99.90
69261;DHT22;56378;52.404;20.816;2024-01-15T14:03:29;0.30;99.90
69261;DHT22;56378;52.404;20.816;2024-01-15T14:05:55;0.30;99.90
69261;DHT22;56378;52.404;20.816;2024-01-15T14:08:21;0.30;99.90
69261;DHT22;56378;52.404;20.816;2024-01-15T14:10:53;0.30;99.90
69261;DHT22;56378;52.404;20.816;2024-01-15T14:13:33;0.30;99.90
69261;DHT22;56378;52.404;20.816;2024-01-15T14:15:59;0.30;99.90
69261;DHT22;56378;52.404;20.816;2024-01-15T14:18:26;0.40;99.90
69261;DHT22;56378;52.404;20.816;2024-01-15T14:20:51;0.30;99.90
69261;DHT22;56378;52.404;20.816;2024-01-15T14:23:19;0.30;99.90
69261;DHT22;56378;52.404;20.816;2024-01-15T14:25:45;0.30;99.90
69261;DHT22;56378;52.404;20.816;2024-01-15T14:28:11;0.30;99.90
69261;DHT22;56378;52.404;20.816;2024-01-15T14:30:36;0.30;99.90
69261;DHT22;56378;52.404;20.816;2024-01-15T14:33:02;0.30;99.90
69261;DHT22;56378;52.404;20.816;2024-01-15T14:35:28;0.30;99.90
69261;DHT22;56378;52.404;20.816;2024-01-15T14:37:53;0.30;99.90
69261;DHT22;56378;52.404;20.816;2024-01-15T14:40:19;0.30;99.90
69261;DHT22;56378;52.404;20.816;2024-01-15T14:42:45;0.30;99.90
69261;DHT22;56378;52.404;20.816;2024-01-15T14:45:10;0.30;99.90
69261;DHT22;56378;52.404;20.816;2024-01-15T14:47:39;0.30;99.90
69261;DHT22;56378;52.404;20.816;2024-01-15T14:50:09;0.30;99.90
69261;DHT22;56378;52.404;20.816;2024-01-15T14:52:38;0.30;99.90
69261;DHT22;56378;52.404;20.816;2024-01-15T14:55:05;0.30;99.90
69261;DHT22;56378;52.404;20.816;2024-01-15T14:57:30;0.30;99.90
69261;DHT22;56378;52.404;20.816;2024-01-15T14:59:56;0.20;99.90
69261;DHT22;56378;52.404;20.816;2024-01-15T15:02:23;0.20;99.90
69261;DHT22;56378;52.404;20.816;2024-01-15T15:04:53;0.10;99.90
69261;DHT22;56378;52.404;20.816;2024-01-15T15:07:21;0.10;99.90
69261;DHT22;56378;52.404;20.816;2024-01-15T15:09:48;0.00;99.90
69261;DHT22;56378;52.404;20.816;2024-01-15T15:12:16;0.00;99.90
69261;DHT22;56378;52.404;20.816;2024-01-15T15:14:42;0.00;99.90
69261;DHT22;56378;52.404;20.816;2024-01-15T15:17:08;-0.10;99.90
69261;DHT22;56378;52.404;20.816;2024-01-15T15:19:35;-0.10;99.90
69261;DHT22;56378;52.404;20.816;2024-01-15T15:22:01;-0.10;99.90
69261;DHT22;56378;52.404;20.816;2024-01-15T15:24:27;-0.20;99.90
69261;DHT22;56378;52.404;20.816;2024-01-15T15:26:53;-0.20;99.90
69261;DHT22;56378;52.404;20.816;2024-01-15T15:29:18;-0.10;99.90
69261;DHT22;56378;52.404;20.816;2024-01-15T15:31:45;-0.10;99.90
69261;DHT22;56378;52.404;20.816;2024-01-15T15:34:11;-0.10;99.90
69261;DHT22;56378;52.404;20.816;2024-01-15T15:36:36;-0.10;99.90
69261;DHT22;56378;52.404;20.816;2024-01-15T15:39:02;-0.10;99.90
69261;DHT22;56378;52.404;20.816;2024-01-15T15:41:28;-0.10;99.90